sensor_id;sensor_type;location;lat;lon;timestamp;pressure;altitude;pressure_sealevel;temperature;humidity
40730;BME280;26418;50.070;8.436;2022-08-01T00:00:35;99938.59;;;23.30;53.58
40730;BME280;26418;50.070;8.436;2022-08-01T00:03:00;99931.06;;;23.19;53.56
40730;BME280;26418;50.070;8.436;2022-08-01T00:05:26;99929.03;;;23.13;53.91
40730;BME280;26418;50.070;8.436;2022-08-01T00:07:51;99935.72;;;23.12;54.04
40730;BME280;26418;50.070;8.436;2022-08-01T00:10:18;99906.06;;;22.94;54.02
40730;BME280;26418;50.070;8.436;2022-08-01T00:12:44;99925.06;;;23.03;54.37
40730;BME280;26418;50.070;8.436;2022-08-01T00:15:11;99931.75;;;23.05;54.21
40730;BME280;26418;50.070;8.436;2022-08-01T00:17:37;99915.06;;;22.84;54.32
40730;BME280;26418;50.070;8.436;2022-08-01T00:20:05;99933.31;;;22.99;54.62
40730;BME280;26418;50.070;8.436;2022-08-01T00:22:32;99950.25;;;23.01;54.86
40730;BME280;26418;50.070;8.436;2022-08-01T00:24:57;99926.50;;;22.86;54.70
40730;BME280;26418;50.070;8.436;2022-08-01T00:27:23;99937.53;;;22.86;54.95
40730;BME280;26418;50.070;8.436;2022-08-01T00:29:48;99939.50;;;22.82;55.12
40730;BME280;26418;50.070;8.436;2022-08-01T00:32:13;99946.13;;;22.73;55.55
40730;BME280;26418;50.070;8.436;2022-08-01T00:34:39;99922.34;;;22.54;55.68
40730;BME280;26418;50.070;8.436;2022-08-01T00:37:04;99941.31;;;22.59;55.72
40730;BME280;26418;50.070;8.436;2022-08-01T00:39:29;99939.31;;;22.60;56.07
40730;BME280;26418;50.070;8.436;2022-08-01T00:41:55;99937.72;;;22.55;56.38
40730;BME280;26418;50.070;8.436;2022-08-01T00:44:20;99935.75;;;22.52;56.12
40730;BME280;26418;50.070;8.436;2022-08-01T00:46:45;99938.88;;;22.54;56.51
40730;BME280;26418;50.070;8.436;2022-08-01T00:49:11;99931.31;;;22.40;56.61
40730;BME280;26418;50.070;8.436;2022-08-01T00:51:36;99941.19;;;22.45;56.79
40730;BME280;26418;50.070;8.436;2022-08-01T00:54:02;99935.25;;;22.39;56.96
40730;BME280;26418;50.070;8.436;2022-08-01T00:56:28;99930.44;;;22.36;56.78
40730;BME280;26418;50.070;8.436;2022-08-01T00:58:55;99947.72;;;22.33;57.40
40730;BME280;26418;50.070;8.436;2022-08-01T01:01:21;99944.16;;;22.29;57.66
40730;BME280;26418;50.070;8.436;2022-08-01T01:03:48;99926.25;;;22.08;57.55
40730;BME280;26418;50.070;8.436;2022-08-01T01:09:15;99948.03;;;22.21;57.92
40730;BME280;26418;50.070;8.436;2022-08-01T01:14:42;99959.00;;;22.17;58.39
40730;BME280;26418;50.070;8.436;2022-08-01T01:17:14;99956.19;;;22.10;58.38
40730;BME280;26418;50.070;8.436;2022-08-01T01:19:48;99943.88;;;22.00;58.53
40730;BME280;26418;50.070;8.436;2022-08-01T01:25:39;99961.94;;;21.97;58.90
40730;BME280;26418;50.070;8.436;2022-08-01T01:31:08;99972.16;;;21.93;59.32
40730;BME280;26418;50.070;8.436;2022-08-01T01:33:36;99967.81;;;21.92;59.55
40730;BME280;26418;50.070;8.436;2022-08-01T01:36:05;99970.88;;;21.87;59.37
40730;BME280;26418;50.070;8.436;2022-08-01T01:38:40;99972.81;;;21.83;59.64
40730;BME280;26418;50.070;8.436;2022-08-01T01:41:08;99972.78;;;21.79;59.88
40730;BME280;26418;50.070;8.436;2022-08-01T01:43:35;99976.25;;;21.76;59.60
40730;BME280;26418;50.070;8.436;2022-08-01T01:46:03;99965.97;;;21.70;59.84
40730;BME280;26418;50.070;8.436;2022-08-01T01:48:28;99971.06;;;21.67;60.00
40730;BME280;26418;50.070;8.436;2022-08-01T01:50:54;99970.22;;;21.63;60.55
40730;BME280;26418;50.070;8.436;2022-08-01T01:53:22;99976.50;;;21.60;60.54
40730;BME280;26418;50.070;8.436;2022-08-01T01:55:52;99976.06;;;21.58;60.57
40730;BME280;26418;50.070;8.436;2022-08-01T01:58:20;99977.53;;;21.52;61.08
40730;BME280;26418;50.070;8.436;2022-08-01T02:00:46;99980.75;;;21.58;60.82
40730;BME280;26418;50.070;8.436;2022-08-01T02:03:13;99979.53;;;21.55;61.19
40730;BME280;26418;50.070;8.436;2022-08-01T02:05:41;99977.88;;;21.50;61.01
40730;BME280;26418;50.070;8.436;2022-08-01T02:08:07;99978.22;;;21.45;61.32
40730;BME280;26418;50.070;8.436;2022-08-01T02:10:35;99981.31;;;21.40;61.56
40730;BME280;26418;50.070;8.436;2022-08-01T02:13:04;99987.97;;;21.39;61.87
40730;BME280;26418;50.070;8.436;2022-08-01T02:15:31;99982.78;;;21.34;61.86
40730;BME280;26418;50.070;8.436;2022-08-01T02:17:59;99988.66;;;21.32;62.13
40730;BME280;26418;50.070;8.436;2022-08-01T02:20:30;99989.41;;;21.29;62.11
40730;BME280;26418;50.070;8.436;2022-08-01T02:23:01;99981.91;;;21.26;62.22
40730;BME280;26418;50.070;8.436;2022-08-01T02:25:36;99983.81;;;21.22;62.18
40730;BME280;26418;50.070;8.436;2022-08-01T02:28:10;99992.81;;;21.19;62.41
40730;BME280;26418;50.070;8.436;2022-08-01T02:30:42;99990.00;;;21.15;62.44
40730;BME280;26418;50.070;8.436;2022-08-01T02:33:14;99987.56;;;21.10;62.63
40730;BME280;26418;50.070;8.436;2022-08-01T02:35:43;99995.38;;;21.08;62.67
40730;BME280;26418;50.070;8.436;2022-08-01T02:38:10;99992.59;;;21.04;63.14
40730;BME280;26418;50.070;8.436;2022-08-01T02:40:40;99988.63;;;21.02;63.35
40730;BME280;26418;50.070;8.436;2022-08-01T02:43:09;99991.31;;;20.98;63.55
40730;BME280;26418;50.070;8.436;2022-08-01T02:45:39;99992.84;;;20.96;63.43
40730;BME280;26418;50.070;8.436;2022-08-01T02:48:11;99990.41;;;20.91;63.83
40730;BME280;26418;50.070;8.436;2022-08-01T02:50:39;99984.13;;;20.90;63.83
40730;BME280;26418;50.070;8.436;2022-08-01T02:53:07;99984.13;;;20.90;63.89
40730;BME280;26418;50.070;8.436;2022-08-01T02:55:37;99992.75;;;20.88;63.76
40730;BME280;26418;50.070;8.436;2022-08-01T02:58:04;99978.94;;;20.85;63.97
40730;BME280;26418;50.070;8.436;2022-08-01T03:00:30;99984.78;;;20.83;63.80
40730;BME280;26418;50.070;8.436;2022-08-01T03:02:56;99974.13;;;20.78;63.94
40730;BME280;26418;50.070;8.436;2022-08-01T03:05:24;99976.81;;;20.75;64.43
40730;BME280;26418;50.070;8.436;2022-08-01T03:07:51;99981.41;;;20.70;64.33
40730;BME280;26418;50.070;8.436;2022-08-01T03:10:18;99982.94;;;20.68;64.51
40730;BME280;26418;50.070;8.436;2022-08-01T03:12:45;99982.13;;;20.64;64.67
40730;BME280;26418;50.070;8.436;2022-08-01T03:15:13;99986.75;;;20.60;64.73
40730;BME280;26418;50.070;8.436;2022-08-01T03:17:41;99982.06;;;20.60;64.82
40730;BME280;26418;50.070;8.436;2022-08-01T03:20:10;99975.69;;;20.56;65.18
40730;BME280;26418;50.070;8.436;2022-08-01T03:22:38;99985.16;;;20.58;65.00
40730;BME280;26418;50.070;8.436;2022-08-01T03:25:06;99992.63;;;20.58;65.22
40730;BME280;26418;50.070;8.436;2022-08-01T03:27:34;99987.50;;;20.56;65.57
40730;BME280;26418;50.070;8.436;2022-08-01T03:30:04;99987.84;;;20.55;65.50
40730;BME280;26418;50.070;8.436;2022-08-01T03:32:30;99990.25;;;20.56;65.43
40730;BME280;26418;50.070;8.436;2022-08-01T03:34:57;99991.75;;;20.54;65.63
40730;BME280;26418;50.070;8.436;2022-08-01T03:37:25;99995.78;;;20.60;65.33
40730;BME280;26418;50.070;8.436;2022-08-01T03:39:58;99985.03;;;20.51;65.44
40730;BME280;26418;50.070;8.436;2022-08-01T03:42:35;99998.00;;;20.51;65.50
40730;BME280;26418;50.070;8.436;2022-08-01T03:45:08;100005.06;;;20.52;65.71
40730;BME280;26418;50.070;8.436;2022-08-01T03:47:35;99999.09;;;20.46;65.71
40730;BME280;26418;50.070;8.436;2022-08-01T03:50:03;100008.91;;;20.47;66.18
40730;BME280;26418;50.070;8.436;2022-08-01T03:52:30;100010.06;;;20.46;66.10
40730;BME280;26418;50.070;8.436;2022-08-01T03:54:59;100003.44;;;20.47;66.11
40730;BME280;26418;50.070;8.436;2022-08-01T03:57:28;99999.94;;;20.50;66.06
40730;BME280;26418;50.070;8.436;2022-08-01T03:59:57;100001.97;;;20.53;65.91
40730;BME280;26418;50.070;8.436;2022-08-01T04:02:23;99997.19;;;20.50;65.97
40730;BME280;26418;50.070;8.436;2022-08-01T04:04:49;100005.88;;;20.52;66.01
40730;BME280;26418;50.070;8.436;2022-08-01T04:07:25;99999.22;;;20.53;65.93
40730;BME280;26418;50.070;8.436;2022-08-01T04:09:51;99994.50;;;20.54;66.14
40730;BME280;26418;50.070;8.436;2022-08-01T04:12:17;99983.00;;;20.48;66.09
40730;BME280;26418;50.070;8.436;2022-08-01T04:14:43;99994.56;;;20.57;65.94
40730;BME280;26418;50.070;8.436;2022-08-01T04:17:08;100000.91;;;20.62;65.58
40730;BME280;26418;50.070;8.436;2022-08-01T04:19:34;99994.69;;;20.65;65.93
40730;BME280;26418;50.070;8.436;2022-08-01T04:21:59;99994.69;;;20.65;65.64
40730;BME280;26418;50.070;8.436;2022-08-01T04:24:26;99995.41;;;20.62;65.67
40730;BME280;26418;50.070;8.436;2022-08-01T04:26:56;99998.59;;;20.64;65.53
40730;BME280;26418;50.070;8.436;2022-08-01T04:29:24;100011.25;;;20.68;65.49
40730;BME280;26418;50.070;8.436;2022-08-01T04:31:53;99999.38;;;20.64;65.48
40730;BME280;26418;50.070;8.436;2022-08-01T04:34:21;100014.00;;;20.68;65.27
40730;BME280;26418;50.070;8.436;2022-08-01T04:36:48;100012.47;;;20.71;65.32
40730;BME280;26418;50.070;8.436;2022-08-01T04:39:16;100009.81;;;20.75;65.45
40730;BME280;26418;50.070;8.436;2022-08-01T04:41:45;100013.03;;;20.80;64.97
40730;BME280;26418;50.070;8.436;2022-08-01T04:44:12;100013.94;;;20.88;64.95
40730;BME280;26418;50.070;8.436;2022-08-01T04:46:38;100023.81;;;20.93;64.62
40730;BME280;26418;50.070;8.436;2022-08-01T04:49:06;100022.56;;;20.86;64.48
40730;BME280;26418;50.070;8.436;2022-08-01T04:51:34;100022.19;;;20.88;64.83
40730;BME280;26418;50.070;8.436;2022-08-01T04:54:00;100024.94;;;20.88;64.55
40730;BME280;26418;50.070;8.436;2022-08-01T04:56:26;100022.13;;;20.84;64.97
40730;BME280;26418;50.070;8.436;2022-08-01T04:58:52;100030.81;;;20.86;64.95
40730;BME280;26418;50.070;8.436;2022-08-01T05:01:37;100040.63;;;20.87;64.89
40730;BME280;26418;50.070;8.436;2022-08-01T05:04:03;100043.06;;;20.93;64.83
40730;BME280;26418;50.070;8.436;2022-08-01T05:06:28;100030.53;;;20.95;64.48
40730;BME280;26418;50.070;8.436;2022-08-01T05:08:54;100028.66;;;20.99;64.42
40730;BME280;26418;50.070;8.436;2022-08-01T05:11:19;100030.72;;;21.06;64.16
40730;BME280;26418;50.070;8.436;2022-08-01T05:13:47;100025.28;;;21.10;63.88
40730;BME280;26418;50.070;8.436;2022-08-01T05:16:12;100038.38;;;21.20;63.88
40730;BME280;26418;50.070;8.436;2022-08-01T05:18:38;100023.50;;;21.25;63.78
40730;BME280;26418;50.070;8.436;2022-08-01T05:21:03;100030.41;;;21.38;63.57
40730;BME280;26418;50.070;8.436;2022-08-01T05:23:28;100030.03;;;21.40;63.12
40730;BME280;26418;50.070;8.436;2022-08-01T05:25:54;100038.81;;;21.49;62.79
40730;BME280;26418;50.070;8.436;2022-08-01T05:28:19;100031.41;;;21.53;62.85
40730;BME280;26418;50.070;8.436;2022-08-01T05:30:44;100035.53;;;21.66;62.48
40730;BME280;26418;50.070;8.436;2022-08-01T05:33:10;100038.38;;;21.74;62.21
40730;BME280;26418;50.070;8.436;2022-08-01T05:35:35;100040.75;;;21.75;62.35
40730;BME280;26418;50.070;8.436;2022-08-01T05:38:01;100040.41;;;21.77;62.25
40730;BME280;26418;50.070;8.436;2022-08-01T05:40:26;100031.25;;;21.69;61.82
40730;BME280;26418;50.070;8.436;2022-08-01T05:42:51;100029.69;;;21.72;61.76
40730;BME280;26418;50.070;8.436;2022-08-01T05:45:17;100044.41;;;21.83;61.71
40730;BME280;26418;50.070;8.436;2022-08-01T05:47:42;100042.03;;;21.81;61.74
40730;BME280;26418;50.070;8.436;2022-08-01T05:50:08;100037.25;;;21.78;61.91
40730;BME280;26418;50.070;8.436;2022-08-01T05:52:33;100055.16;;;21.95;61.64
40730;BME280;26418;50.070;8.436;2022-08-01T05:54:59;100059.97;;;22.02;61.84
40730;BME280;26418;50.070;8.436;2022-08-01T05:57:24;100047.41;;;22.05;61.49
40730;BME280;26418;50.070;8.436;2022-08-01T05:59:49;100038.09;;;22.17;61.31
40730;BME280;26418;50.070;8.436;2022-08-01T06:02:15;100049.59;;;22.26;60.63
40730;BME280;26418;50.070;8.436;2022-08-01T06:04:40;100042.56;;;22.28;60.52
40730;BME280;26418;50.070;8.436;2022-08-01T06:07:06;100048.53;;;22.38;60.65
40730;BME280;26418;50.070;8.436;2022-08-01T06:09:31;100045.06;;;22.41;60.39
40730;BME280;26418;50.070;8.436;2022-08-01T06:11:56;100035.63;;;22.42;60.15
40730;BME280;26418;50.070;8.436;2022-08-01T06:14:22;100044.00;;;22.53;59.38
40730;BME280;26418;50.070;8.436;2022-08-01T06:16:48;100061.81;;;22.63;59.54
40730;BME280;26418;50.070;8.436;2022-08-01T06:19:13;100069.75;;;22.68;59.50
40730;BME280;26418;50.070;8.436;2022-08-01T06:21:38;100073.75;;;22.74;59.21
40730;BME280;26418;50.070;8.436;2022-08-01T06:24:04;100067.94;;;22.83;59.32
40730;BME280;26418;50.070;8.436;2022-08-01T06:26:29;100076.66;;;22.92;58.81
40730;BME280;26418;50.070;8.436;2022-08-01T06:28:56;100072.78;;;23.00;58.54
40730;BME280;26418;50.070;8.436;2022-08-01T06:31:21;100075.63;;;23.07;58.46
40730;BME280;26418;50.070;8.436;2022-08-01T06:33:46;100068.16;;;23.12;58.14
40730;BME280;26418;50.070;8.436;2022-08-01T06:36:12;100058.38;;;23.21;57.96
40730;BME280;26418;50.070;8.436;2022-08-01T06:38:37;100067.56;;;23.36;57.20
40730;BME280;26418;50.070;8.436;2022-08-01T06:41:02;100065.19;;;23.35;57.07
40730;BME280;26418;50.070;8.436;2022-08-01T06:43:28;100075.09;;;23.39;57.07
40730;BME280;26418;50.070;8.436;2022-08-01T06:45:54;100072.59;;;23.23;57.09
40730;BME280;26418;50.070;8.436;2022-08-01T06:48:19;100072.84;;;23.04;57.56
40730;BME280;26418;50.070;8.436;2022-08-01T06:50:45;100080.66;;;22.98;57.96
40730;BME280;26418;50.070;8.436;2022-08-01T06:53:10;100067.50;;;22.81;58.39
40730;BME280;26418;50.070;8.436;2022-08-01T06:55:35;100085.75;;;22.96;58.16
40730;BME280;26418;50.070;8.436;2022-08-01T06:58:01;100079.00;;;22.86;58.35
40730;BME280;26418;50.070;8.436;2022-08-01T07:00:26;100071.97;;;22.96;58.02
40730;BME280;26418;50.070;8.436;2022-08-01T07:02:53;100090.19;;;23.08;58.04
40730;BME280;26418;50.070;8.436;2022-08-01T07:05:19;100074.38;;;23.05;57.65
40730;BME280;26418;50.070;8.436;2022-08-01T07:07:45;100079.88;;;23.01;58.01
40730;BME280;26418;50.070;8.436;2022-08-01T07:10:10;100061.72;;;22.97;57.89
40730;BME280;26418;50.070;8.436;2022-08-01T07:12:37;100073.78;;;23.22;57.52
40730;BME280;26418;50.070;8.436;2022-08-01T07:15:08;100067.97;;;23.38;57.20
40730;BME280;26418;50.070;8.436;2022-08-01T07:17:38;100066.50;;;23.55;56.63
40730;BME280;26418;50.070;8.436;2022-08-01T07:20:06;100052.75;;;23.66;56.33
40730;BME280;26418;50.070;8.436;2022-08-01T07:22:32;100067.91;;;23.98;55.77
40730;BME280;26418;50.070;8.436;2022-08-01T07:24:57;100071.53;;;24.20;55.43
40730;BME280;26418;50.070;8.436;2022-08-01T07:27:23;100064.50;;;24.33;54.75
40730;BME280;26418;50.070;8.436;2022-08-01T07:29:48;100054.63;;;24.32;54.23
40730;BME280;26418;50.070;8.436;2022-08-01T07:32:13;100050.63;;;24.23;54.12
40730;BME280;26418;50.070;8.436;2022-08-01T07:34:38;100068.44;;;24.29;54.18
40730;BME280;26418;50.070;8.436;2022-08-01T07:37:04;100054.53;;;24.14;54.54
40730;BME280;26418;50.070;8.436;2022-08-01T07:39:29;100015.75;;;23.89;54.57
40730;BME280;26418;50.070;8.436;2022-08-01T07:41:54;100053.75;;;24.14;54.53
40730;BME280;26418;50.070;8.436;2022-08-01T07:44:20;100053.78;;;24.25;54.55
40730;BME280;26418;50.070;8.436;2022-08-01T07:46:45;100052.63;;;24.37;54.32
40730;BME280;26418;50.070;8.436;2022-08-01T07:49:10;100052.69;;;24.55;53.91
40730;BME280;26418;50.070;8.436;2022-08-01T07:51:36;100053.06;;;24.64;53.51
40730;BME280;26418;50.070;8.436;2022-08-01T07:54:01;100055.09;;;24.74;53.07
40730;BME280;26418;50.070;8.436;2022-08-01T07:56:27;100039.28;;;24.82;52.58
40730;BME280;26418;50.070;8.436;2022-08-01T07:58:52;100045.22;;;25.06;51.72
40730;BME280;26418;50.070;8.436;2022-08-01T08:01:17;100024.66;;;25.10;51.43
40730;BME280;26418;50.070;8.436;2022-08-01T08:03:43;100023.03;;;25.35;50.62
40730;BME280;26418;50.070;8.436;2022-08-01T08:06:08;100045.91;;;25.64;49.74
40730;BME280;26418;50.070;8.436;2022-08-01T08:08:34;100051.47;;;25.64;50.02
40730;BME280;26418;50.070;8.436;2022-08-01T08:11:00;100062.53;;;25.57;50.29
40730;BME280;26418;50.070;8.436;2022-08-01T08:13:26;100060.59;;;25.47;50.41
40730;BME280;26418;50.070;8.436;2022-08-01T08:15:51;100036.47;;;25.36;50.59
40730;BME280;26418;50.070;8.436;2022-08-01T08:18:17;100057.03;;;25.46;50.75
40730;BME280;26418;50.070;8.436;2022-08-01T08:20:43;100060.19;;;25.48;50.57
40730;BME280;26418;50.070;8.436;2022-08-01T08:23:09;100055.84;;;25.43;50.63
40730;BME280;26418;50.070;8.436;2022-08-01T08:25:57;100055.84;;;25.33;50.56
40730;BME280;26418;50.070;8.436;2022-08-01T08:28:23;100072.06;;;25.27;50.87
40730;BME280;26418;50.070;8.436;2022-08-01T08:30:48;100053.91;;;24.97;51.49
40730;BME280;26418;50.070;8.436;2022-08-01T08:33:13;100071.31;;;24.87;51.90
40730;BME280;26418;50.070;8.436;2022-08-01T08:35:39;100065.34;;;24.67;52.56
40730;BME280;26418;50.070;8.436;2022-08-01T08:38:06;100084.69;;;24.63;52.62
40730;BME280;26418;50.070;8.436;2022-08-01T08:40:34;100086.66;;;24.59;53.00
40730;BME280;26418;50.070;8.436;2022-08-01T08:43:01;100092.59;;;24.61;53.06
40730;BME280;26418;50.070;8.436;2022-08-01T08:45:29;100072.41;;;24.49;53.35
40730;BME280;26418;50.070;8.436;2022-08-01T08:47:55;100088.22;;;24.56;53.46
40730;BME280;26418;50.070;8.436;2022-08-01T08:50:22;100069.66;;;24.53;53.29
40730;BME280;26418;50.070;8.436;2022-08-01T08:52:47;100082.34;;;24.69;52.54
40730;BME280;26418;50.070;8.436;2022-08-01T08:55:15;100079.19;;;24.77;52.50
40730;BME280;26418;50.070;8.436;2022-08-01T08:57:43;100074.06;;;24.79;52.36
40730;BME280;26418;50.070;8.436;2022-08-01T09:00:10;100073.66;;;24.88;52.13
40730;BME280;26418;50.070;8.436;2022-08-01T09:02:41;100074.06;;;25.05;51.88
40730;BME280;26418;50.070;8.436;2022-08-01T09:05:07;100076.03;;;25.30;51.37
40730;BME280;26418;50.070;8.436;2022-08-01T09:07:32;100071.66;;;25.54;50.62
40730;BME280;26418;50.070;8.436;2022-08-01T09:09:58;100057.34;;;25.70;50.43
40730;BME280;26418;50.070;8.436;2022-08-01T09:12:23;100066.72;;;26.05;49.71
40730;BME280;26418;50.070;8.436;2022-08-01T09:14:48;100060.69;;;26.28;48.90
40730;BME280;26418;50.070;8.436;2022-08-01T09:17:15;100061.63;;;26.67;48.36
40730;BME280;26418;50.070;8.436;2022-08-01T09:19:46;100050.00;;;26.90;47.85
40730;BME280;26418;50.070;8.436;2022-08-01T09:22:15;100063.16;;;27.24;45.85
40730;BME280;26418;50.070;8.436;2022-08-01T09:25:09;100067.75;;;27.42;46.13
40730;BME280;26418;50.070;8.436;2022-08-01T09:27:37;100075.53;;;27.58;44.98
40730;BME280;26418;50.070;8.436;2022-08-01T09:32:51;100059.38;;;28.46;43.75
40730;BME280;26418;50.070;8.436;2022-08-01T09:35:25;100064.38;;;28.82;41.92
40730;BME280;26418;50.070;8.436;2022-08-01T09:37:51;100062.16;;;28.46;42.52
40730;BME280;26418;50.070;8.436;2022-08-01T09:40:16;100062.09;;;28.49;43.24
40730;BME280;26418;50.070;8.436;2022-08-01T09:42:42;100050.78;;;28.88;42.07
40730;BME280;26418;50.070;8.436;2022-08-01T09:45:07;100065.06;;;29.37;41.92
40730;BME280;26418;50.070;8.436;2022-08-01T09:47:39;100046.28;;;29.61;41.20
40730;BME280;26418;50.070;8.436;2022-08-01T09:50:06;100059.16;;;29.75;40.67
40730;BME280;26418;50.070;8.436;2022-08-01T09:52:32;100061.72;;;30.06;39.98
40730;BME280;26418;50.070;8.436;2022-08-01T09:55:00;100064.78;;;30.12;38.63
40730;BME280;26418;50.070;8.436;2022-08-01T09:57:27;100064.88;;;30.08;38.68
40730;BME280;26418;50.070;8.436;2022-08-01T09:59:55;100039.34;;;29.70;39.60
40730;BME280;26418;50.070;8.436;2022-08-01T10:02:37;100065.50;;;29.76;39.79
40730;BME280;26418;50.070;8.436;2022-08-01T10:05:09;100058.88;;;29.49;40.33
40730;BME280;26418;50.070;8.436;2022-08-01T10:07:36;100065.06;;;29.37;39.81
40730;BME280;26418;50.070;8.436;2022-08-01T10:10:19;100067.09;;;29.09;40.28
40730;BME280;26418;50.070;8.436;2022-08-01T10:12:45;100059.13;;;28.88;41.31
40730;BME280;26418;50.070;8.436;2022-08-01T10:15:15;100066.09;;;28.76;41.86
40730;BME280;26418;50.070;8.436;2022-08-01T10:17:47;100058.13;;;28.47;41.77
40730;BME280;26418;50.070;8.436;2022-08-01T10:20:16;100059.28;;;28.22;42.52
40730;BME280;26418;50.070;8.436;2022-08-01T10:22:42;100059.78;;;28.17;42.90
40730;BME280;26418;50.070;8.436;2022-08-01T10:25:09;100054.34;;;28.06;42.59
40730;BME280;26418;50.070;8.436;2022-08-01T10:27:36;100046.25;;;27.84;43.12
40730;BME280;26418;50.070;8.436;2022-08-01T10:30:04;100040.16;;;27.66;43.22
40730;BME280;26418;50.070;8.436;2022-08-01T10:32:31;100052.50;;;27.61;43.30
40730;BME280;26418;50.070;8.436;2022-08-01T10:34:58;100047.28;;;27.98;42.40
40730;BME280;26418;50.070;8.436;2022-08-01T10:37:24;100053.22;;;28.58;41.87
40730;BME280;26418;50.070;8.436;2022-08-01T10:39:51;100033.78;;;29.26;40.20
40730;BME280;26418;50.070;8.436;2022-08-01T10:42:17;100031.06;;;29.66;39.38
40730;BME280;26418;50.070;8.436;2022-08-01T10:44:43;100031.84;;;29.67;38.90
40730;BME280;26418;50.070;8.436;2022-08-01T10:47:12;100042.78;;;29.98;38.83
40730;BME280;26418;50.070;8.436;2022-08-01T10:50:03;100038.19;;;30.61;37.13
40730;BME280;26418;50.070;8.436;2022-08-01T10:52:26;100028.63;;;31.24;35.69
40730;BME280;26418;50.070;8.436;2022-08-01T10:55:03;100021.00;;;31.96;35.31
40730;BME280;26418;50.070;8.436;2022-08-01T10:57:45;100017.84;;;32.72;34.48
40730;BME280;26418;50.070;8.436;2022-08-01T11:00:21;100020.81;;;33.26;32.89
40730;BME280;26418;50.070;8.436;2022-08-01T11:03:00;100021.81;;;33.76;31.72
40730;BME280;26418;50.070;8.436;2022-08-01T11:05:27;100021.38;;;33.33;31.81
40730;BME280;26418;50.070;8.436;2022-08-01T11:07:54;100009.31;;;32.75;32.79
40730;BME280;26418;50.070;8.436;2022-08-01T11:12:45;100013.03;;;31.40;34.52
40730;BME280;26418;50.070;8.436;2022-08-01T11:17:43;100023.88;;;30.05;37.82
40730;BME280;26418;50.070;8.436;2022-08-01T11:30:56;100011.50;;;29.26;39.55
40730;BME280;26418;50.070;8.436;2022-08-01T11:38:39;99997.22;;;28.80;40.24
40730;BME280;26418;50.070;8.436;2022-08-01T11:44:11;100014.94;;;28.66;40.98
40730;BME280;26418;50.070;8.436;2022-08-01T11:46:48;100002.75;;;29.27;39.99
40730;BME280;26418;50.070;8.436;2022-08-01T11:54:28;100001.44;;;30.79;36.91
40730;BME280;26418;50.070;8.436;2022-08-01T11:57:01;99997.34;;;31.29;35.37
40730;BME280;26418;50.070;8.436;2022-08-01T11:59:27;99990.06;;;31.32;35.19
40730;BME280;26418;50.070;8.436;2022-08-01T12:01:53;99983.41;;;31.13;34.37
40730;BME280;26418;50.070;8.436;2022-08-01T12:04:19;100000.63;;;31.11;34.38
40730;BME280;26418;50.070;8.436;2022-08-01T12:06:45;99978.97;;;30.99;34.13
40730;BME280;26418;50.070;8.436;2022-08-01T12:09:21;99968.59;;;30.99;34.38
40730;BME280;26418;50.070;8.436;2022-08-01T12:11:47;99966.25;;;31.14;34.63
40730;BME280;26418;50.070;8.436;2022-08-01T12:14:20;99966.94;;;31.31;34.52
40730;BME280;26418;50.070;8.436;2022-08-01T12:16:51;99969.81;;;31.57;34.05
40730;BME280;26418;50.070;8.436;2022-08-01T12:19:21;99969.06;;;31.95;33.53
40730;BME280;26418;50.070;8.436;2022-08-01T12:22:05;99975.13;;;32.33;32.40
40730;BME280;26418;50.070;8.436;2022-08-01T12:24:32;99966.59;;;32.49;31.39
40730;BME280;26418;50.070;8.436;2022-08-01T12:26:57;99977.88;;;33.06;30.92
40730;BME280;26418;50.070;8.436;2022-08-01T12:29:34;99972.47;;;32.77;30.08
40730;BME280;26418;50.070;8.436;2022-08-01T12:32:00;99974.78;;;32.43;30.94
40730;BME280;26418;50.070;8.436;2022-08-01T12:34:26;99978.50;;;32.40;30.85
40730;BME280;26418;50.070;8.436;2022-08-01T12:36:55;99980.38;;;31.79;31.59
40730;BME280;26418;50.070;8.436;2022-08-01T12:39:21;99951.19;;;31.08;32.53
40730;BME280;26418;50.070;8.436;2022-08-01T12:41:46;99978.44;;;31.04;33.49
40730;BME280;26418;50.070;8.436;2022-08-01T12:44:15;99938.44;;;30.78;33.76
40730;BME280;26418;50.070;8.436;2022-08-01T12:46:41;99967.81;;;30.99;33.47
40730;BME280;26418;50.070;8.436;2022-08-01T12:49:07;99940.22;;;30.71;33.32
40730;BME280;26418;50.070;8.436;2022-08-01T12:51:33;99979.19;;;30.75;33.83
40730;BME280;26418;50.070;8.436;2022-08-01T12:53:59;99970.06;;;29.88;34.20
40730;BME280;26418;50.070;8.436;2022-08-01T12:56:34;99966.03;;;29.53;34.93
40730;BME280;26418;50.070;8.436;2022-08-01T12:58:59;99979.88;;;29.16;35.87
40730;BME280;26418;50.070;8.436;2022-08-01T13:01:26;99963.97;;;28.93;36.33
40730;BME280;26418;50.070;8.436;2022-08-01T13:04:02;99969.53;;;29.16;36.75
40730;BME280;26418;50.070;8.436;2022-08-01T13:06:31;99959.25;;;29.33;36.29
40730;BME280;26418;50.070;8.436;2022-08-01T13:09:10;99967.13;;;29.59;35.95
40730;BME280;26418;50.070;8.436;2022-08-01T13:11:36;99968.41;;;29.54;35.18
40730;BME280;26418;50.070;8.436;2022-08-01T13:14:02;99960.31;;;29.60;35.59
40730;BME280;26418;50.070;8.436;2022-08-01T13:16:27;99973.47;;;29.59;35.21
40730;BME280;26418;50.070;8.436;2022-08-01T13:18:56;99973.97;;;29.34;35.44
40730;BME280;26418;50.070;8.436;2022-08-01T13:21:24;99980.75;;;29.13;35.29
40730;BME280;26418;50.070;8.436;2022-08-01T13:24:08;99973.13;;;28.93;36.08
40730;BME280;26418;50.070;8.436;2022-08-01T13:29:05;99968.38;;;28.70;36.99
40730;BME280;26418;50.070;8.436;2022-08-01T13:31:34;99968.03;;;28.40;37.61
40730;BME280;26418;50.070;8.436;2022-08-01T13:34:01;99987.41;;;28.20;37.99
40730;BME280;26418;50.070;8.436;2022-08-01T13:36:26;99987.44;;;27.89;38.53
40730;BME280;26418;50.070;8.436;2022-08-01T13:38:54;99992.50;;;27.67;39.31
40730;BME280;26418;50.070;8.436;2022-08-01T13:41:38;99980.47;;;27.43;39.58
40730;BME280;26418;50.070;8.436;2022-08-01T13:44:03;99979.19;;;27.51;40.02